Hattiesburg Laurel Regional Airport
KPIB : now visible

Airfield :











YOU CAN JOIN US ON...

 
LOGIN :

Register | Disclaimer

   EN    FR    IT 

 









Legend :    VFR   Marginal VFR   IFR   Intensive IFR   Very Intensive IFR
Visi :
Ceiling :
>= 8 km
>= 3000ft
5 to 8 km
1000 to 3000 ft
1500m to 5 km
500 to 1000 ft
800 to 1500m
200 to 500 ft
< 800m
< 200 ft
Symbols :   Thunderstorms  Fog  Heavy snow  Heavy precipitations  Wind > 20 kt






- Airport Elevation : 298 ft
- IATA code : PIB


KPIB - Hattiesburg Laurel Regional

CURRENT METAR :
  • 161056Z AUTO 33008KT 10SM OVC014 16/16 A3010 RMK AO2 SLP190 T01610156

EXPIRED METARs :
  • 161028Z AUTO 33010G15KT 10SM BKN011 OVC016 17/16 A3008 RMK AO2 CIG 008V014
  • 161003Z AUTO 33011G17KT 10SM OVC009 17/17 A3007 RMK AO2 CIG 008V014
  • 160956Z AUTO 32009G17KT 10SM OVC011 18/17 A3007 RMK AO2 RAE0857 CIG 008V014 SLP180 T01780172
  • 160937Z AUTO 32007G14KT 10SM BKN011 BKN028 OVC036 19/18 A3006 RMK AO2 RAE0857 CIG 008V017
  • 160903Z AUTO 34011G19KT 10SM FEW006 SCT012 OVC022 19/19 A3004 RMK AO2 RAE0857
  • 160829Z AUTO 32007KT 4SM RA BR SCT006 BKN028 OVC034 21/21 A3003 RMK AO2 RAB05 P0011

TAF KPIB
Valid from the 16 at 06:00 until the 17 at 06:00 UTC


160520Z 1606/1706 20004KT P6SM FEW050 SCT100
FM160645 31012G20KT P6SM VCSH OVC015
FM160730 34012G20KT P6SM OVC015
FM161200 36014G22KT P6SM SKC
FM170000 34003KT P6SM SKC
KZHU FIR / North America



MET'MAP, your aeronautical weather chart ! - Copyright ORBIFLY December 2007 - Disclaimer

ORBIFLY MET'MAP TEAM :

Programming & Development : Alexandra Zaïnal
Concept & original design : Baudouin d'Aumeries
Assistance for programming : Marc-Olivier Méhu
Technical & hardware support : Manuel Goepfert

Contact : metmap@orbifly.com




SOURCES & CREDITS :

   NOAA       Earth
Advisory